createdAt,value
2023-05-17T00:03:07.323Z,84.76
2023-05-17T00:06:24.182Z,85.06
2023-05-17T00:09:28.127Z,84.63
2023-05-17T00:12:32.398Z,85.00
2023-05-17T00:15:50.530Z,84.77
2023-05-17T00:18:53.751Z,84.51
2023-05-17T00:21:57.621Z,84.62
2023-05-17T00:25:22.395Z,84.20
2023-05-17T00:28:49.156Z,84.20
2023-05-17T00:31:56.832Z,84.58
2023-05-17T00:35:17.229Z,84.87
2023-05-17T00:38:27.157Z,84.85
2023-05-17T00:41:36.999Z,85.05
2023-05-17T00:44:40.336Z,85.13
2023-05-17T00:47:47.438Z,85.13
2023-05-17T00:51:02.655Z,84.87
2023-05-17T00:54:06.803Z,84.66
2023-05-17T00:57:11.417Z,84.67
2023-05-17T01:00:32.260Z,85.08
2023-05-17T01:03:36.289Z,85.07
2023-05-17T01:06:40.596Z,85.17
2023-05-17T01:09:44.388Z,85.23
2023-05-17T01:13:14.282Z,85.56
2023-05-17T01:16:45.018Z,85.32
2023-05-17T01:19:55.370Z,85.52
2023-05-17T01:23:28.743Z,85.27
2023-05-17T01:26:44.314Z,85.32
2023-05-17T01:29:51.562Z,85.80
2023-05-17T01:32:59.643Z,85.73
2023-05-17T01:36:05.293Z,86.24
2023-05-17T01:39:20.606Z,85.98
2023-05-17T01:42:32.705Z,85.85
2023-05-17T01:46:00.121Z,86.36
2023-05-17T01:49:49.193Z,86.54
2023-05-17T01:53:11.696Z,86.10
2023-05-17T01:56:22.147Z,85.83
2023-05-17T01:59:31.768Z,85.45
2023-05-17T02:02:48.224Z,85.24
2023-05-17T02:06:26.108Z,85.60
2023-05-17T02:09:40.418Z,86.37
2023-05-17T02:12:44.243Z,86.51
2023-05-17T02:15:48.170Z,86.97
2023-05-17T02:18:58.127Z,86.87
2023-05-17T02:22:21.055Z,86.34
2023-05-17T02:25:37.409Z,86.13
2023-05-17T02:29:02.057Z,86.37
2023-05-17T02:32:25.016Z,86.52
2023-05-17T02:35:50.066Z,86.67
2023-05-17T02:39:11.101Z,87.09
2023-05-17T02:42:14.780Z,86.37
2023-05-17T02:45:18.463Z,86.70
2023-05-17T02:48:25.879Z,86.11
2023-05-17T02:51:49.168Z,86.25
2023-05-17T02:55:09.555Z,85.89
2023-05-17T02:58:30.354Z,85.25
2023-05-17T03:01:51.508Z,85.50
2023-05-17T03:05:08.497Z,85.46
2023-05-17T03:08:23.056Z,85.40
2023-05-17T03:11:28.949Z,85.34
2023-05-17T03:14:37.636Z,85.09
2023-05-17T03:17:59.859Z,86.01
2023-05-17T03:21:13.268Z,85.66
2023-05-17T03:24:38.139Z,86.23
2023-05-17T03:27:42.064Z,86.22
2023-05-17T03:30:46.816Z,85.34
2023-05-17T03:34:02.945Z,85.01
2023-05-17T03:37:12.440Z,85.29
2023-05-17T03:40:25.263Z,84.91
2023-05-17T03:44:01.192Z,84.64
2023-05-17T03:47:26.332Z,84.67
2023-05-17T03:50:30.282Z,84.87
2023-05-17T03:53:49.888Z,85.72
2023-05-17T03:56:57.059Z,84.90
2023-05-17T04:00:11.926Z,84.44
2023-05-17T04:03:29.771Z,84.27
2023-05-17T04:06:37.018Z,84.28
2023-05-17T04:09:41.275Z,84.29
2023-05-17T04:12:53.795Z,83.99
2023-05-17T04:16:05.783Z,83.56
2023-05-17T04:19:22.119Z,83.75
2023-05-17T04:22:46.760Z,83.91
2023-05-17T04:26:17.241Z,83.75
2023-05-17T04:29:39.757Z,83.42
2023-05-17T04:33:05.193Z,83.60
2023-05-17T04:36:24.266Z,83.37
2023-05-17T04:39:41.214Z,83.11
2023-05-17T04:42:57.894Z,83.69
2023-05-17T04:46:23.781Z,84.22
2023-05-17T04:49:45.952Z,83.49
2023-05-17T04:53:13.759Z,82.98
2023-05-17T04:56:36.787Z,83.00
2023-05-17T04:59:45.782Z,82.17
2023-05-17T05:02:50.205Z,81.83
2023-05-17T05:05:54.786Z,81.60
2023-05-17T05:08:58.569Z,81.78
2023-05-17T05:12:02.363Z,81.48
2023-05-17T05:15:07.927Z,80.76
2023-05-17T05:18:29.717Z,80.37
2023-05-17T05:21:52.799Z,80.26
2023-05-17T05:25:15.633Z,80.73
2023-05-17T05:28:31.762Z,81.30
2023-05-17T05:31:46.018Z,80.39
2023-05-17T05:35:02.757Z,80.42
2023-05-17T05:38:29.670Z,80.48
2023-05-17T05:41:37.084Z,79.34
2023-05-17T05:44:40.849Z,80.26
2023-05-17T05:48:02.455Z,78.87
2023-05-17T05:51:16.483Z,78.55
2023-05-17T05:54:39.575Z,78.81
2023-05-17T05:58:05.318Z,77.76
2023-05-17T06:01:15.572Z,78.80
2023-05-17T06:04:21.007Z,80.21
2023-05-17T06:07:26.313Z,78.36
2023-05-17T06:10:34.019Z,78.41
2023-05-17T06:13:37.161Z,78.73
2023-05-17T06:16:42.269Z,80.34
2023-05-17T06:19:52.772Z,80.29
2023-05-17T06:23:11.548Z,80.64
2023-05-17T06:26:41.486Z,79.80
2023-05-17T06:30:07.538Z,79.76
2023-05-17T06:33:25.503Z,79.97
2023-05-17T06:36:28.780Z,79.52
2023-05-17T06:39:32.473Z,79.85
2023-05-17T06:42:46.645Z,80.07
2023-05-17T06:45:53.183Z,79.63
2023-05-17T06:49:06.674Z,79.89
2023-05-17T06:52:12.922Z,81.38
2023-05-17T06:55:30.996Z,80.88
2023-05-17T06:58:35.771Z,79.52
2023-05-17T07:01:40.027Z,79.01
2023-05-17T07:04:43.436Z,80.97
2023-05-17T07:07:59.361Z,79.67
2023-05-17T07:11:22.498Z,80.16
2023-05-17T07:14:46.536Z,80.26
2023-05-17T07:18:10.441Z,79.33
2023-05-17T07:21:21.255Z,79.64
2023-05-17T07:24:44.327Z,79.63
2023-05-17T07:28:11.440Z,80.81
2023-05-17T07:31:34.417Z,80.71
2023-05-17T07:34:58.474Z,79.97
2023-05-17T07:38:07.881Z,79.16
2023-05-17T07:41:23.343Z,79.21
2023-05-17T07:44:49.028Z,79.19
2023-05-17T07:47:53.265Z,79.06
2023-05-17T07:51:00.037Z,79.18
2023-05-17T07:54:20.449Z,78.93
2023-05-17T07:57:40.473Z,78.53
2023-05-17T08:00:56.381Z,79.63
2023-05-17T08:04:16.491Z,78.86
2023-05-17T08:07:36.538Z,79.02
2023-05-17T08:10:44.389Z,79.25
2023-05-17T08:13:51.524Z,79.31
2023-05-17T08:17:00.930Z,80.66
2023-05-17T08:20:23.292Z,79.07
2023-05-17T08:23:56.037Z,78.70
2023-05-17T08:27:08.563Z,78.38
2023-05-17T08:30:28.200Z,79.31
2023-05-17T08:33:38.877Z,78.85
2023-05-17T08:36:52.667Z,79.10
2023-05-17T08:40:02.779Z,78.88
2023-05-17T08:43:07.803Z,78.15
2023-05-17T08:46:15.840Z,77.10
2023-05-17T08:49:26.052Z,77.58
2023-05-17T08:52:36.309Z,77.00
2023-05-17T08:55:43.094Z,79.30
2023-05-17T08:59:09.192Z,79.56
2023-05-17T09:02:30.166Z,78.33
2023-05-17T09:05:33.306Z,78.82
2023-05-17T09:08:43.381Z,78.39
2023-05-17T09:11:59.343Z,79.19
2023-05-17T09:15:21.145Z,78.23
2023-05-17T09:18:45.203Z,78.76
2023-05-17T09:22:13.097Z,78.34
2023-05-17T09:25:32.702Z,77.12
2023-05-17T09:28:49.642Z,77.03
2023-05-17T09:32:17.016Z,76.91
2023-05-17T09:35:31.057Z,75.97
2023-05-17T09:38:40.695Z,77.24
2023-05-17T09:42:06.695Z,76.68
2023-05-17T09:45:35.184Z,76.88
2023-05-17T09:48:57.925Z,75.80
2023-05-17T09:52:06.639Z,76.17
2023-05-17T09:55:25.221Z,76.63
2023-05-17T09:58:42.881Z,76.08
2023-05-17T10:01:46.562Z,75.03
2023-05-17T10:04:56.092Z,75.48
2023-05-17T10:08:00.922Z,73.15
2023-05-17T10:11:22.195Z,73.37
2023-05-17T10:14:34.169Z,72.61
2023-05-17T10:17:43.902Z,71.96
2023-05-17T10:20:50.215Z,70.65
2023-05-17T10:24:03.813Z,69.55
2023-05-17T10:27:19.946Z,70.59
2023-05-17T10:30:42.898Z,68.65
2023-05-17T10:34:08.772Z,67.72
2023-05-17T10:37:31.748Z,69.30
2023-05-17T10:40:54.776Z,69.15
2023-05-17T10:44:13.055Z,67.95
2023-05-17T10:47:28.882Z,65.15
2023-05-17T10:51:01.699Z,65.57
2023-05-17T10:54:24.731Z,65.27
2023-05-17T10:57:49.794Z,65.63
2023-05-17T11:01:09.723Z,66.92
2023-05-17T11:04:27.018Z,65.60
2023-05-17T11:07:49.877Z,68.37
2023-05-17T11:11:18.478Z,68.46
2023-05-17T11:14:35.732Z,68.63
2023-05-17T11:18:00.838Z,67.50
2023-05-17T11:21:13.752Z,66.96
2023-05-17T11:24:39.857Z,66.02
2023-05-17T11:28:06.710Z,65.82
2023-05-17T11:31:30.756Z,66.02
2023-05-17T11:34:52.788Z,67.29
2023-05-17T11:38:25.069Z,67.95
2023-05-17T11:41:28.799Z,65.69
2023-05-17T11:44:51.776Z,64.77
2023-05-17T11:48:09.055Z,62.96
2023-05-17T11:51:16.614Z,61.25
2023-05-17T11:54:27.468Z,62.30
2023-05-17T11:57:40.637Z,62.51
2023-05-17T12:01:05.303Z,64.74
2023-05-17T12:04:20.947Z,66.14
2023-05-17T12:07:37.837Z,66.10
2023-05-17T12:10:58.939Z,65.70
2023-05-17T12:14:26.343Z,66.65
2023-05-17T12:17:51.533Z,65.71
2023-05-17T12:21:08.724Z,66.23
2023-05-17T12:24:28.913Z,66.81
2023-05-17T12:27:46.672Z,67.32
2023-05-17T12:30:59.025Z,66.35
2023-05-17T12:34:10.075Z,68.36
2023-05-17T12:37:20.116Z,68.53
2023-05-17T12:40:23.457Z,68.31
2023-05-17T12:43:28.702Z,68.99
2023-05-17T12:46:36.061Z,69.78
2023-05-17T12:50:03.612Z,71.40
2023-05-17T12:53:10.966Z,70.78
2023-05-17T12:56:38.288Z,69.17
2023-05-17T12:59:58.709Z,69.66
2023-05-17T13:03:17.852Z,70.49
2023-05-17T13:06:34.535Z,69.54
2023-05-17T13:09:50.746Z,69.25
2023-05-17T13:12:57.016Z,68.10
2023-05-17T13:16:00.324Z,66.66
2023-05-17T13:19:16.264Z,60.75
2023-05-17T13:22:25.157Z,59.32
2023-05-17T13:25:28.981Z,59.20
2023-05-17T13:28:36.519Z,52.87
2023-05-17T13:31:57.449Z,51.12
2023-05-17T13:35:18.428Z,49.84
2023-05-17T13:38:41.478Z,53.67
2023-05-17T13:42:00.553Z,51.51
2023-05-17T13:45:04.608Z,53.11
2023-05-17T13:48:08.408Z,52.78
2023-05-17T13:51:18.960Z,54.19
2023-05-17T13:54:41.507Z,48.25
2023-05-17T13:57:58.859Z,49.35
2023-05-17T14:01:05.280Z,48.90
2023-05-17T14:04:08.867Z,48.25
2023-05-17T14:07:19.447Z,48.24
2023-05-17T14:10:29.281Z,46.79
2023-05-17T14:13:32.913Z,50.60
2023-05-17T14:16:36.447Z,54.37
2023-05-17T14:19:46.339Z,54.82
2023-05-17T14:22:51.533Z,54.30
2023-05-17T14:25:57.979Z,56.63
2023-05-17T14:29:16.441Z,57.80
2023-05-17T14:32:32.609Z,61.00
2023-05-17T14:35:46.218Z,61.72
2023-05-17T14:38:50.096Z,60.86
2023-05-17T14:41:56.685Z,60.48
2023-05-17T14:45:13.896Z,61.60
2023-05-17T14:48:30.519Z,64.04
2023-05-17T14:52:02.019Z,63.92
2023-05-17T14:55:12.223Z,63.51
2023-05-17T14:58:16.332Z,61.49
2023-05-17T15:01:21.100Z,63.65
2023-05-17T15:04:28.317Z,62.69
2023-05-17T15:07:48.515Z,61.44
2023-05-17T15:10:52.410Z,63.86
2023-05-17T15:13:57.470Z,65.26
2023-05-17T15:17:07.101Z,68.13
2023-05-17T15:20:27.902Z,68.12
2023-05-17T15:23:31.349Z,67.74
2023-05-17T15:26:36.606Z,67.52
2023-05-17T15:29:44.869Z,69.15
2023-05-17T15:32:58.259Z,69.58
2023-05-17T15:36:07.234Z,69.38
2023-05-17T15:39:15.576Z,68.33
2023-05-17T15:42:36.014Z,69.29
2023-05-17T15:45:49.430Z,71.02
2023-05-17T15:49:12.266Z,69.85
2023-05-17T15:52:39.192Z,70.40
2023-05-17T15:55:59.463Z,71.04
2023-05-17T15:59:16.296Z,71.81
2023-05-17T16:02:20.277Z,71.52
2023-05-17T16:05:28.129Z,71.19
2023-05-17T16:08:45.646Z,71.73
2023-05-17T16:12:01.874Z,73.13
2023-05-17T16:15:09.726Z,72.98
2023-05-17T16:18:17.671Z,73.00
2023-05-17T16:21:26.317Z,73.02
2023-05-17T16:24:29.562Z,74.09
2023-05-17T16:27:43.348Z,73.77
2023-05-17T16:30:46.665Z,72.72
2023-05-17T16:34:09.190Z,74.05
2023-05-17T16:37:27.766Z,74.44
2023-05-17T16:40:43.023Z,73.92
2023-05-17T16:43:53.141Z,74.80
2023-05-17T16:46:56.709Z,75.08
2023-05-17T16:50:22.261Z,74.77
2023-05-17T16:53:36.060Z,75.79
2023-05-17T16:56:46.642Z,75.05
2023-05-17T17:00:21.436Z,76.28
2023-05-17T17:03:29.546Z,75.82
2023-05-17T17:06:50.133Z,75.44
2023-05-17T17:10:14.960Z,75.63
2023-05-17T17:13:31.622Z,76.41
2023-05-17T17:16:44.988Z,75.21
2023-05-17T17:19:53.009Z,74.99
2023-05-17T17:22:58.264Z,75.79
2023-05-17T17:26:16.775Z,76.19
2023-05-17T17:29:43.951Z,76.26
2023-05-17T17:32:52.043Z,77.06
2023-05-17T17:36:02.976Z,77.74
2023-05-17T17:39:06.776Z,77.27
2023-05-17T17:42:11.175Z,77.31
2023-05-17T17:45:24.380Z,77.26
2023-05-17T17:48:29.183Z,77.35
2023-05-17T17:51:38.310Z,76.99
2023-05-17T17:55:04.344Z,76.61
2023-05-17T17:58:14.663Z,75.78
2023-05-17T18:01:18.104Z,76.12
2023-05-17T18:04:29.493Z,76.38
2023-05-17T18:07:40.625Z,76.23
2023-05-17T18:10:48.192Z,76.34
2023-05-17T18:13:51.998Z,76.53
2023-05-17T18:16:56.418Z,76.69
2023-05-17T18:20:09.649Z,76.49
2023-05-17T18:23:14.720Z,76.71
2023-05-17T18:26:24.591Z,76.42
2023-05-17T18:29:36.466Z,76.10
2023-05-17T18:32:59.944Z,76.50
2023-05-17T18:36:18.180Z,76.10
2023-05-17T18:39:21.686Z,75.45
2023-05-17T18:42:26.014Z,75.81
2023-05-17T18:45:36.851Z,75.81
2023-05-17T18:48:58.061Z,76.31
2023-05-17T18:52:21.822Z,75.76
2023-05-17T18:55:41.358Z,75.20
2023-05-17T18:59:04.867Z,75.51
2023-05-17T19:02:28.329Z,75.66
2023-05-17T19:05:45.257Z,75.17
2023-05-17T19:09:06.119Z,75.22
2023-05-17T19:12:29.793Z,76.10
2023-05-17T19:15:56.891Z,75.57
2023-05-17T19:19:01.245Z,76.60
2023-05-17T19:22:27.159Z,75.37
2023-05-17T19:25:32.469Z,76.17
2023-05-17T19:28:35.935Z,76.06
2023-05-17T19:31:56.810Z,75.43
2023-05-17T19:35:17.830Z,75.58
2023-05-17T19:38:39.835Z,75.37
2023-05-17T19:42:03.644Z,75.66
2023-05-17T19:45:20.997Z,74.94
2023-05-17T19:48:27.047Z,75.21
2023-05-17T19:51:36.058Z,75.30
2023-05-17T19:54:44.964Z,74.86
2023-05-17T19:58:05.741Z,74.54
2023-05-17T20:01:27.538Z,75.18
2023-05-17T20:04:50.658Z,75.41
2023-05-17T20:07:55.387Z,75.00
2023-05-17T20:10:59.570Z,76.15
2023-05-17T20:14:05.050Z,75.60
2023-05-17T20:17:08.612Z,75.38
2023-05-17T20:20:17.269Z,75.14
2023-05-17T20:23:25.497Z,75.30
2023-05-17T20:26:39.786Z,75.01
2023-05-17T20:30:04.213Z,74.73
2023-05-17T20:33:26.786Z,74.63
2023-05-17T20:36:37.100Z,74.52
2023-05-17T20:39:54.578Z,75.10
2023-05-17T20:43:23.476Z,74.22
2023-05-17T20:46:45.173Z,75.06
2023-05-17T20:50:08.526Z,74.26
2023-05-17T20:53:16.822Z,73.89
2023-05-17T20:56:35.283Z,76.04
2023-05-17T20:59:54.047Z,74.23
2023-05-17T21:03:11.491Z,74.28
2023-05-17T21:06:15.744Z,74.08
2023-05-17T21:09:33.443Z,75.22
2023-05-17T21:12:56.499Z,74.96
2023-05-17T21:16:13.002Z,74.95
2023-05-17T21:19:16.295Z,74.16
2023-05-17T21:22:21.027Z,74.80
2023-05-17T21:25:37.930Z,74.72
2023-05-17T21:28:57.418Z,74.87
2023-05-17T21:32:20.558Z,73.60
2023-05-17T21:35:40.709Z,74.48
2023-05-17T21:42:38.651Z,73.66
2023-05-17T21:45:45.459Z,73.74
2023-05-17T21:49:03.563Z,74.61
2023-05-17T21:52:23.453Z,74.25
2023-05-17T21:56:01.385Z,73.98
2023-05-17T21:59:14.925Z,73.77
2023-05-17T22:02:19.354Z,73.73
2023-05-17T22:05:27.182Z,73.40
2023-05-17T22:08:32.282Z,72.98
2023-05-17T22:11:56.296Z,74.03
2023-05-17T22:15:18.113Z,73.63
2023-05-17T22:18:35.464Z,73.33
2023-05-17T22:21:51.191Z,72.89
2023-05-17T22:25:18.556Z,72.46
2023-05-17T22:28:35.281Z,72.21
2023-05-17T22:32:09.225Z,73.36
2023-05-17T22:35:36.208Z,74.57
2023-05-17T22:38:59.335Z,73.56
2023-05-17T22:42:17.244Z,73.23
2023-05-17T22:45:20.528Z,73.98
2023-05-17T22:48:31.168Z,73.25
2023-05-17T22:51:35.716Z,74.10
2023-05-17T22:54:39.674Z,74.20
2023-05-17T22:57:43.264Z,73.83
2023-05-17T23:00:52.442Z,73.42
2023-05-17T23:04:09.537Z,74.35
2023-05-17T23:07:36.370Z,74.28
2023-05-17T23:10:56.373Z,75.49
2023-05-17T23:14:17.252Z,74.53
2023-05-17T23:17:21.554Z,74.82
2023-05-17T23:20:32.020Z,75.86
2023-05-17T23:23:38.719Z,76.76
2023-05-17T23:27:01.815Z,76.58
2023-05-17T23:30:28.793Z,78.46
2023-05-17T23:33:48.102Z,78.13
2023-05-17T23:37:00.212Z,78.88
2023-05-17T23:40:17.194Z,77.62
2023-05-17T23:43:41.820Z,79.42
2023-05-17T23:47:05.192Z,79.35
2023-05-17T23:50:31.789Z,79.00
2023-05-17T23:53:38.553Z,80.50
2023-05-17T23:56:45.774Z,79.94
2023-05-17T23:59:50.257Z,80.88
